Terminal Aerodrome Forecast
Issued by NWS

Home | Current Version | Previous Version | Text Only | Print | Product List | Glossary On
Versions: 1 2 3 4 5 6 7 8 9 10 11 12 13 14 15 16 17 18 19 20 21 22 23
000
FTUS46 KMFR 241123
TAFOTH
TAF
KOTH 241123Z 2412/2512 02005KT P6SM OVC030
     FM241800 33008KT P6SM OVC035
     FM242000 35018G28KT P6SM BKN035
     FM250200 36010KT P6SM OVC025
     FM250600 36005KT P6SM OVC015=

USA.gov is the U.S. government's official web portal to all federal, state and local government web resources and services.